sensor_id;sensor_type;location;lat;lon;timestamp;pressure;altitude;pressure_sealevel;temperature;humidity
40794;BME280;26502;51.886;15.604;2023-07-13T00:04:53;100338.56;;;20.94;54.62
40794;BME280;26502;51.886;15.604;2023-07-13T00:09:59;100335.29;;;21.07;55.02
40794;BME280;26502;51.886;15.604;2023-07-13T00:15:09;100321.04;;;21.12;55.06
40794;BME280;26502;51.886;15.604;2023-07-13T00:20:17;100321.40;;;21.14;55.04
40794;BME280;26502;51.886;15.604;2023-07-13T00:25:25;100320.42;;;21.11;55.01
40794;BME280;26502;51.886;15.604;2023-07-13T00:30:32;100314.08;;;21.11;55.07
40794;BME280;26502;51.886;15.604;2023-07-13T00:35:38;100316.27;;;21.15;55.02
40794;BME280;26502;51.886;15.604;2023-07-13T00:40:44;100332.08;;;20.96;54.80
40794;BME280;26502;51.886;15.604;2023-07-13T00:51:35;100335.45;;;20.49;55.43
40794;BME280;26502;51.886;15.604;2023-07-13T00:56:43;100342.89;;;20.26;55.88
40794;BME280;26502;51.886;15.604;2023-07-13T01:01:49;100334.13;;;20.32;56.35
40794;BME280;26502;51.886;15.604;2023-07-13T01:06:55;100332.02;;;20.43;56.34
40794;BME280;26502;51.886;15.604;2023-07-13T01:12:01;100330.84;;;20.53;56.30
40794;BME280;26502;51.886;15.604;2023-07-13T01:17:10;100332.77;;;20.51;56.30
40794;BME280;26502;51.886;15.604;2023-07-13T01:22:18;100333.58;;;20.20;56.38
40794;BME280;26502;51.886;15.604;2023-07-13T01:27:29;100332.70;;;20.06;56.57
40794;BME280;26502;51.886;15.604;2023-07-13T01:32:35;100329.36;;;20.10;56.96
40794;BME280;26502;51.886;15.604;2023-07-13T01:37:41;100327.73;;;20.12;56.98
40794;BME280;26502;51.886;15.604;2023-07-13T01:42:49;100306.23;;;20.15;57.33
40794;BME280;26502;51.886;15.604;2023-07-13T01:47:56;100299.89;;;20.22;57.51
40794;BME280;26502;51.886;15.604;2023-07-13T01:53:03;100295.09;;;20.03;57.14
40794;BME280;26502;51.886;15.604;2023-07-13T01:58:08;100284.46;;;20.03;57.41
40794;BME280;26502;51.886;15.604;2023-07-13T02:03:14;100290.98;;;20.02;57.41
40794;BME280;26502;51.886;15.604;2023-07-13T02:08:22;100290.79;;;19.98;57.56
40794;BME280;26502;51.886;15.604;2023-07-13T02:13:28;100303.89;;;19.96;57.78
40794;BME280;26502;51.886;15.604;2023-07-13T02:18:34;100315.40;;;19.94;58.03
40794;BME280;26502;51.886;15.604;2023-07-13T02:23:40;100314.48;;;19.87;57.99
40794;BME280;26502;51.886;15.604;2023-07-13T02:28:46;100315.23;;;19.80;58.18
40794;BME280;26502;51.886;15.604;2023-07-13T02:33:52;100323.85;;;19.68;58.39
40794;BME280;26502;51.886;15.604;2023-07-13T02:39:00;100327.70;;;19.63;58.49
40794;BME280;26502;51.886;15.604;2023-07-13T02:44:05;100340.35;;;19.52;58.59
40794;BME280;26502;51.886;15.604;2023-07-13T02:49:12;100339.91;;;19.46;58.24
40794;BME280;26502;51.886;15.604;2023-07-13T02:54:18;100327.44;;;19.59;57.90
40794;BME280;26502;51.886;15.604;2023-07-13T02:59:24;100314.96;;;19.74;57.93
40794;BME280;26502;51.886;15.604;2023-07-13T03:04:30;100313.41;;;19.75;57.69
40794;BME280;26502;51.886;15.604;2023-07-13T03:09:36;100308.99;;;19.74;57.23
40794;BME280;26502;51.886;15.604;2023-07-13T03:14:43;100312.19;;;19.75;57.25
40794;BME280;26502;51.886;15.604;2023-07-13T03:19:49;100315.93;;;19.75;57.53
40794;BME280;26502;51.886;15.604;2023-07-13T03:24:57;100320.08;;;19.78;57.41
40794;BME280;26502;51.886;15.604;2023-07-13T03:30:05;100331.34;;;19.72;57.22
40794;BME280;26502;51.886;15.604;2023-07-13T03:35:11;100343.23;;;19.69;57.24
40794;BME280;26502;51.886;15.604;2023-07-13T03:40:18;100355.52;;;19.71;57.11
40794;BME280;26502;51.886;15.604;2023-07-13T03:45:24;100364.20;;;19.73;57.28
40794;BME280;26502;51.886;15.604;2023-07-13T03:50:29;100374.65;;;19.71;57.17
40794;BME280;26502;51.886;15.604;2023-07-13T03:55:35;100379.61;;;19.65;57.29
40794;BME280;26502;51.886;15.604;2023-07-13T04:00:41;100387.33;;;19.75;57.87
40794;BME280;26502;51.886;15.604;2023-07-13T04:05:47;100394.01;;;19.87;58.21
40794;BME280;26502;51.886;15.604;2023-07-13T04:10:53;100393.92;;;19.97;57.95
40794;BME280;26502;51.886;15.604;2023-07-13T04:15:59;100393.05;;;20.09;57.61
40794;BME280;26502;51.886;15.604;2023-07-13T04:21:04;100395.97;;;20.23;57.70
40794;BME280;26502;51.886;15.604;2023-07-13T04:26:11;100401.56;;;20.22;57.73
40794;BME280;26502;51.886;15.604;2023-07-13T04:31:17;100408.07;;;20.10;57.97
40794;BME280;26502;51.886;15.604;2023-07-13T04:36:23;100412.94;;;20.15;57.91
40794;BME280;26502;51.886;15.604;2023-07-13T04:41:29;100425.00;;;19.89;57.41
40794;BME280;26502;51.886;15.604;2023-07-13T04:46:35;100437.49;;;19.54;57.66
40794;BME280;26502;51.886;15.604;2023-07-13T04:51:41;100440.94;;;19.51;58.29
40794;BME280;26502;51.886;15.604;2023-07-13T04:56:47;100446.52;;;19.61;58.39
40794;BME280;26502;51.886;15.604;2023-07-13T05:01:53;100453.20;;;19.73;58.20
40794;BME280;26502;51.886;15.604;2023-07-13T05:06:58;100458.70;;;19.74;58.30
40794;BME280;26502;51.886;15.604;2023-07-13T05:12:05;100463.33;;;19.77;58.44
40794;BME280;26502;51.886;15.604;2023-07-13T05:17:11;100468.77;;;19.69;58.43
40794;BME280;26502;51.886;15.604;2023-07-13T05:22:17;100466.59;;;19.75;58.67
40794;BME280;26502;51.886;15.604;2023-07-13T05:27:22;100473.46;;;19.80;58.45
40794;BME280;26502;51.886;15.604;2023-07-13T05:32:29;100480.09;;;19.80;58.32
40794;BME280;26502;51.886;15.604;2023-07-13T05:37:34;100480.32;;;19.79;58.46
40794;BME280;26502;51.886;15.604;2023-07-13T05:42:41;100481.45;;;19.93;58.69
40794;BME280;26502;51.886;15.604;2023-07-13T05:47:46;100486.33;;;20.10;58.57
40794;BME280;26502;51.886;15.604;2023-07-13T05:52:52;100484.02;;;20.19;58.63
40794;BME280;26502;51.886;15.604;2023-07-13T05:57:58;100486.83;;;20.20;58.61
40794;BME280;26502;51.886;15.604;2023-07-13T06:03:05;100485.33;;;20.21;58.48
40794;BME280;26502;51.886;15.604;2023-07-13T06:08:11;100484.13;;;20.37;58.60
40794;BME280;26502;51.886;15.604;2023-07-13T06:13:16;100492.82;;;20.58;58.49
40794;BME280;26502;51.886;15.604;2023-07-13T06:18:23;100496.55;;;20.73;58.33
40794;BME280;26502;51.886;15.604;2023-07-13T06:23:29;100497.87;;;20.79;57.89
40794;BME280;26502;51.886;15.604;2023-07-13T06:28:36;100502.26;;;20.83;57.81
40794;BME280;26502;51.886;15.604;2023-07-13T06:33:42;100508.33;;;20.93;57.51
40794;BME280;26502;51.886;15.604;2023-07-13T06:38:48;100511.35;;;20.73;57.48
40794;BME280;26502;51.886;15.604;2023-07-13T06:43:54;100506.17;;;20.83;57.46
40794;BME280;26502;51.886;15.604;2023-07-13T06:49:00;100506.30;;;21.14;57.63
40794;BME280;26502;51.886;15.604;2023-07-13T06:54:06;100507.97;;;21.25;57.44
40794;BME280;26502;51.886;15.604;2023-07-13T06:59:11;100504.08;;;21.42;57.27
40794;BME280;26502;51.886;15.604;2023-07-13T07:04:17;100511.04;;;21.59;57.35
40794;BME280;26502;51.886;15.604;2023-07-13T07:09:22;100515.38;;;21.68;56.93
40794;BME280;26502;51.886;15.604;2023-07-13T07:14:28;100511.63;;;21.63;56.83
40794;BME280;26502;51.886;15.604;2023-07-13T07:19:34;100507.35;;;21.75;56.79
40794;BME280;26502;51.886;15.604;2023-07-13T07:24:40;100504.15;;;21.99;56.53
40794;BME280;26502;51.886;15.604;2023-07-13T07:29:46;100508.98;;;21.95;56.34
40794;BME280;26502;51.886;15.604;2023-07-13T07:34:52;100510.11;;;21.97;56.42
40794;BME280;26502;51.886;15.604;2023-07-13T07:39:57;100511.58;;;21.97;56.14
40794;BME280;26502;51.886;15.604;2023-07-13T07:45:04;100509.40;;;21.92;56.37
40794;BME280;26502;51.886;15.604;2023-07-13T07:50:11;100501.83;;;22.26;56.38
40794;BME280;26502;51.886;15.604;2023-07-13T07:55:17;100499.74;;;22.45;56.08
40794;BME280;26502;51.886;15.604;2023-07-13T08:00:23;100494.21;;;22.76;55.94
40794;BME280;26502;51.886;15.604;2023-07-13T08:05:29;100494.40;;;23.20;55.67
40794;BME280;26502;51.886;15.604;2023-07-13T08:10:36;100493.27;;;23.63;55.31
40794;BME280;26502;51.886;15.604;2023-07-13T08:15:42;100500.30;;;24.04;54.88
40794;BME280;26502;51.886;15.604;2023-07-13T08:20:47;100502.31;;;24.09;53.92
40794;BME280;26502;51.886;15.604;2023-07-13T08:25:54;100499.84;;;24.46;53.72
40794;BME280;26502;51.886;15.604;2023-07-13T08:31:03;100495.29;;;24.98;52.38
40794;BME280;26502;51.886;15.604;2023-07-13T08:36:09;100498.08;;;24.95;50.51
40794;BME280;26502;51.886;15.604;2023-07-13T08:41:17;100499.34;;;25.07;49.93
40794;BME280;26502;51.886;15.604;2023-07-13T08:46:26;100494.31;;;25.55;49.04
40794;BME280;26502;51.886;15.604;2023-07-13T08:51:41;100500.02;;;25.75;47.57
40794;BME280;26502;51.886;15.604;2023-07-13T08:56:51;100503.73;;;25.22;46.11
40794;BME280;26502;51.886;15.604;2023-07-13T09:02:19;100508.17;;;25.02;44.77
40794;BME280;26502;51.886;15.604;2023-07-13T09:07:40;100507.70;;;24.98;44.95
40794;BME280;26502;51.886;15.604;2023-07-13T09:13:00;100513.83;;;25.40;44.87
40794;BME280;26502;51.886;15.604;2023-07-13T09:18:13;100515.25;;;25.34;44.51
40794;BME280;26502;51.886;15.604;2023-07-13T09:23:23;100526.14;;;25.27;43.91
40794;BME280;26502;51.886;15.604;2023-07-13T09:28:37;100528.34;;;25.38;43.93
40794;BME280;26502;51.886;15.604;2023-07-13T09:33:44;100524.64;;;25.83;43.51
40794;BME280;26502;51.886;15.604;2023-07-13T09:39:02;100523.80;;;25.98;42.16
40794;BME280;26502;51.886;15.604;2023-07-13T09:44:11;100526.58;;;26.12;42.22
40794;BME280;26502;51.886;15.604;2023-07-13T09:49:17;100528.69;;;26.41;41.97
40794;BME280;26502;51.886;15.604;2023-07-13T09:54:25;100526.86;;;26.29;40.01
40794;BME280;26502;51.886;15.604;2023-07-13T09:59:35;100520.41;;;26.51;40.60
40794;BME280;26502;51.886;15.604;2023-07-13T10:04:45;100523.36;;;26.61;39.56
40794;BME280;26502;51.886;15.604;2023-07-13T10:09:53;100521.17;;;26.86;39.71
40794;BME280;26502;51.886;15.604;2023-07-13T10:15:01;100524.02;;;26.78;38.48
40794;BME280;26502;51.886;15.604;2023-07-13T10:20:10;100520.69;;;26.45;38.14
40794;BME280;26502;51.886;15.604;2023-07-13T10:25:20;100523.65;;;26.17;38.27
40794;BME280;26502;51.886;15.604;2023-07-13T10:30:30;100511.83;;;26.62;38.06
40794;BME280;26502;51.886;15.604;2023-07-13T10:35:36;100512.98;;;26.92;37.29
40794;BME280;26502;51.886;15.604;2023-07-13T10:40:45;100519.02;;;27.07;37.12
40794;BME280;26502;51.886;15.604;2023-07-13T10:45:54;100522.56;;;27.10;37.08
40794;BME280;26502;51.886;15.604;2023-07-13T10:51:01;100531.52;;;26.89;37.49
40794;BME280;26502;51.886;15.604;2023-07-13T10:56:22;100536.04;;;26.48;36.89
40794;BME280;26502;51.886;15.604;2023-07-13T11:01:41;100535.93;;;26.07;36.98
40794;BME280;26502;51.886;15.604;2023-07-13T11:06:56;100540.75;;;25.95;37.17
40794;BME280;26502;51.886;15.604;2023-07-13T11:12:02;100535.02;;;26.38;36.50
40794;BME280;26502;51.886;15.604;2023-07-13T11:17:32;100529.96;;;26.77;34.71
40794;BME280;26502;51.886;15.604;2023-07-13T11:22:46;100531.75;;;26.93;34.47
40794;BME280;26502;51.886;15.604;2023-07-13T11:28:03;100530.52;;;27.04;33.69
40794;BME280;26502;51.886;15.604;2023-07-13T11:33:16;100531.64;;;27.20;34.00
40794;BME280;26502;51.886;15.604;2023-07-13T11:38:24;100522.17;;;27.31;34.59
40794;BME280;26502;51.886;15.604;2023-07-13T11:43:33;100519.58;;;27.49;34.98
40794;BME280;26502;51.886;15.604;2023-07-13T11:48:39;100517.44;;;27.33;35.22
40794;BME280;26502;51.886;15.604;2023-07-13T11:53:48;100515.95;;;27.74;35.36
40794;BME280;26502;51.886;15.604;2023-07-13T11:58:57;100515.70;;;28.22;34.79
40794;BME280;26502;51.886;15.604;2023-07-13T12:04:04;100515.98;;;28.29;34.10
40794;BME280;26502;51.886;15.604;2023-07-13T12:09:14;100510.33;;;27.92;34.33
40794;BME280;26502;51.886;15.604;2023-07-13T12:14:20;100513.11;;;28.07;34.23
40794;BME280;26502;51.886;15.604;2023-07-13T12:19:29;100509.90;;;28.00;33.52
40794;BME280;26502;51.886;15.604;2023-07-13T12:24:36;100508.38;;;27.89;33.32
40794;BME280;26502;51.886;15.604;2023-07-13T12:29:51;100507.16;;;28.17;31.87
40794;BME280;26502;51.886;15.604;2023-07-13T12:35:12;100508.05;;;28.07;31.86
40794;BME280;26502;51.886;15.604;2023-07-13T12:40:20;100517.35;;;28.19;31.73
40794;BME280;26502;51.886;15.604;2023-07-13T12:45:28;100513.43;;;28.76;31.29
40794;BME280;26502;51.886;15.604;2023-07-13T12:50:39;100504.97;;;29.17;30.59
40794;BME280;26502;51.886;15.604;2023-07-13T12:55:48;100506.64;;;28.73;30.43
40794;BME280;26502;51.886;15.604;2023-07-13T13:00:57;100505.52;;;27.73;30.76
40794;BME280;26502;51.886;15.604;2023-07-13T13:06:05;100505.11;;;27.51;31.61
40794;BME280;26502;51.886;15.604;2023-07-13T13:11:12;100500.70;;;27.65;32.08
40794;BME280;26502;51.886;15.604;2023-07-13T13:16:24;100508.30;;;27.56;32.16
40794;BME280;26502;51.886;15.604;2023-07-13T13:21:35;100509.06;;;27.27;32.76
40794;BME280;26502;51.886;15.604;2023-07-13T13:26:41;100507.96;;;27.03;33.20
40794;BME280;26502;51.886;15.604;2023-07-13T13:31:48;100502.04;;;27.34;33.57
40794;BME280;26502;51.886;15.604;2023-07-13T13:36:55;100499.61;;;28.06;32.77
40794;BME280;26502;51.886;15.604;2023-07-13T13:42:01;100500.95;;;27.87;32.51
40794;BME280;26502;51.886;15.604;2023-07-13T13:47:19;100509.84;;;27.53;32.76
40794;BME280;26502;51.886;15.604;2023-07-13T13:52:27;100512.85;;;27.21;32.90
40794;BME280;26502;51.886;15.604;2023-07-13T13:57:32;100511.05;;;27.34;33.01
40794;BME280;26502;51.886;15.604;2023-07-13T14:02:38;100509.88;;;26.97;33.37
40794;BME280;26502;51.886;15.604;2023-07-13T14:07:44;100513.83;;;26.73;33.53
40794;BME280;26502;51.886;15.604;2023-07-13T14:12:53;100515.30;;;27.31;33.63
40794;BME280;26502;51.886;15.604;2023-07-13T14:18:00;100515.46;;;28.29;33.45
40794;BME280;26502;51.886;15.604;2023-07-13T14:23:06;100524.67;;;28.80;32.88
40794;BME280;26502;51.886;15.604;2023-07-13T14:28:20;100527.39;;;28.75;32.64
40794;BME280;26502;51.886;15.604;2023-07-13T14:33:26;100531.05;;;28.82;32.52
40794;BME280;26502;51.886;15.604;2023-07-13T14:38:32;100525.92;;;28.75;32.35
40794;BME280;26502;51.886;15.604;2023-07-13T14:43:39;100526.33;;;28.43;32.20
40794;BME280;26502;51.886;15.604;2023-07-13T14:48:45;100519.10;;;28.20;32.53
40794;BME280;26502;51.886;15.604;2023-07-13T14:53:50;100519.25;;;27.79;32.41
40794;BME280;26502;51.886;15.604;2023-07-13T14:58:56;100525.23;;;27.64;32.82
40794;BME280;26502;51.886;15.604;2023-07-13T15:04:03;100520.92;;;27.50;32.93
40794;BME280;26502;51.886;15.604;2023-07-13T15:09:12;100524.23;;;27.10;33.22
40794;BME280;26502;51.886;15.604;2023-07-13T15:14:18;100520.27;;;27.00;33.27
40794;BME280;26502;51.886;15.604;2023-07-13T15:19:24;100518.79;;;27.70;33.33
40794;BME280;26502;51.886;15.604;2023-07-13T15:24:31;100510.79;;;27.78;32.53
40794;BME280;26502;51.886;15.604;2023-07-13T15:29:36;100506.33;;;27.45;32.98
40794;BME280;26502;51.886;15.604;2023-07-13T15:34:42;100499.79;;;27.73;32.97
40794;BME280;26502;51.886;15.604;2023-07-13T15:39:48;100498.35;;;28.29;32.93
40794;BME280;26502;51.886;15.604;2023-07-13T15:44:54;100493.84;;;28.66;32.41
40794;BME280;26502;51.886;15.604;2023-07-13T15:50:00;100501.64;;;29.04;32.15
40794;BME280;26502;51.886;15.604;2023-07-13T15:55:09;100504.34;;;29.08;32.26
40794;BME280;26502;51.886;15.604;2023-07-13T16:00:19;100498.83;;;29.03;32.10
40794;BME280;26502;51.886;15.604;2023-07-13T16:05:26;100500.22;;;29.15;32.07
40794;BME280;26502;51.886;15.604;2023-07-13T16:10:34;100508.11;;;28.46;31.04
40794;BME280;26502;51.886;15.604;2023-07-13T16:15:41;100512.05;;;28.06;31.47
40794;BME280;26502;51.886;15.604;2023-07-13T16:20:49;100514.07;;;28.04;31.73
40794;BME280;26502;51.886;15.604;2023-07-13T16:25:55;100512.95;;;27.73;32.00
40794;BME280;26502;51.886;15.604;2023-07-13T16:31:01;100516.54;;;27.87;32.74
40794;BME280;26502;51.886;15.604;2023-07-13T16:36:11;100521.29;;;27.94;32.56
40794;BME280;26502;51.886;15.604;2023-07-13T16:41:18;100523.41;;;27.56;32.86
40794;BME280;26502;51.886;15.604;2023-07-13T16:46:24;100522.48;;;27.30;33.01
40794;BME280;26502;51.886;15.604;2023-07-13T16:51:30;100518.70;;;27.14;33.04
40794;BME280;26502;51.886;15.604;2023-07-13T16:56:35;100520.46;;;27.13;33.11
40794;BME280;26502;51.886;15.604;2023-07-13T17:01:41;100519.82;;;27.13;32.95
40794;BME280;26502;51.886;15.604;2023-07-13T17:06:47;100521.97;;;27.01;32.90
40794;BME280;26502;51.886;15.604;2023-07-13T17:11:54;100522.46;;;26.98;32.80
40794;BME280;26502;51.886;15.604;2023-07-13T17:17:00;100525.05;;;26.82;32.82
40794;BME280;26502;51.886;15.604;2023-07-13T17:22:07;100531.31;;;26.56;32.84
40794;BME280;26502;51.886;15.604;2023-07-13T17:27:13;100534.55;;;26.37;32.94
40794;BME280;26502;51.886;15.604;2023-07-13T17:32:20;100534.92;;;26.27;33.37
40794;BME280;26502;51.886;15.604;2023-07-13T17:37:26;100541.40;;;26.22;33.72
40794;BME280;26502;51.886;15.604;2023-07-13T17:42:32;100547.40;;;26.18;34.09
40794;BME280;26502;51.886;15.604;2023-07-13T17:47:38;100548.30;;;26.22;34.58
40794;BME280;26502;51.886;15.604;2023-07-13T17:52:44;100552.52;;;26.22;34.72
40794;BME280;26502;51.886;15.604;2023-07-13T17:57:50;100554.52;;;26.14;35.15
40794;BME280;26502;51.886;15.604;2023-07-13T18:02:58;100557.83;;;26.05;35.24
40794;BME280;26502;51.886;15.604;2023-07-13T18:08:20;100562.58;;;25.86;35.44
40794;BME280;26502;51.886;15.604;2023-07-13T18:13:27;100568.48;;;25.65;35.77
40794;BME280;26502;51.886;15.604;2023-07-13T18:18:36;100576.61;;;25.45;35.92
40794;BME280;26502;51.886;15.604;2023-07-13T18:23:42;100583.67;;;25.36;36.09
40794;BME280;26502;51.886;15.604;2023-07-13T18:28:49;100590.16;;;25.30;36.67
40794;BME280;26502;51.886;15.604;2023-07-13T18:33:55;100596.06;;;25.18;36.89
40794;BME280;26502;51.886;15.604;2023-07-13T18:39:01;100603.72;;;25.02;37.05
40794;BME280;26502;51.886;15.604;2023-07-13T18:44:10;100609.77;;;24.74;37.30
40794;BME280;26502;51.886;15.604;2023-07-13T18:49:15;100612.34;;;24.56;37.47
40794;BME280;26502;51.886;15.604;2023-07-13T18:54:21;100614.45;;;24.35;38.06
40794;BME280;26502;51.886;15.604;2023-07-13T18:59:27;100622.73;;;24.38;38.64
40794;BME280;26502;51.886;15.604;2023-07-13T19:04:33;100624.98;;;24.41;39.14
40794;BME280;26502;51.886;15.604;2023-07-13T19:09:39;100630.41;;;24.37;39.48
40794;BME280;26502;51.886;15.604;2023-07-13T19:14:45;100627.69;;;24.31;39.95
40794;BME280;26502;51.886;15.604;2023-07-13T19:19:51;100636.48;;;24.20;39.74
40794;BME280;26502;51.886;15.604;2023-07-13T19:24:57;100647.77;;;24.14;40.20
40794;BME280;26502;51.886;15.604;2023-07-13T19:30:07;100657.34;;;24.04;40.44
40794;BME280;26502;51.886;15.604;2023-07-13T19:35:14;100661.71;;;23.88;40.37
40794;BME280;26502;51.886;15.604;2023-07-13T19:40:23;100671.59;;;23.43;40.42
40794;BME280;26502;51.886;15.604;2023-07-13T19:45:29;100679.11;;;23.14;40.61
40794;BME280;26502;51.886;15.604;2023-07-13T19:50:36;100683.04;;;23.00;40.94
40794;BME280;26502;51.886;15.604;2023-07-13T19:55:42;100685.14;;;22.72;41.07
40794;BME280;26502;51.886;15.604;2023-07-13T20:00:48;100689.55;;;22.23;41.18
40794;BME280;26502;51.886;15.604;2023-07-13T20:05:54;100695.92;;;21.97;41.74
40794;BME280;26502;51.886;15.604;2023-07-13T20:11:00;100707.21;;;21.96;41.97
40794;BME280;26502;51.886;15.604;2023-07-13T20:16:07;100711.27;;;21.79;42.30
40794;BME280;26502;51.886;15.604;2023-07-13T20:21:15;100712.40;;;21.49;42.44
40794;BME280;26502;51.886;15.604;2023-07-13T20:26:21;100720.52;;;21.23;42.87
40794;BME280;26502;51.886;15.604;2023-07-13T20:31:31;100718.02;;;21.03;43.34
40794;BME280;26502;51.886;15.604;2023-07-13T20:36:38;100720.03;;;20.74;43.74
40794;BME280;26502;51.886;15.604;2023-07-13T20:41:45;100724.13;;;20.45;44.50
40794;BME280;26502;51.886;15.604;2023-07-13T20:46:52;100732.59;;;20.25;44.85
40794;BME280;26502;51.886;15.604;2023-07-13T20:51:58;100756.74;;;19.90;45.19
40794;BME280;26502;51.886;15.604;2023-07-13T20:57:04;100764.48;;;19.95;45.38
40794;BME280;26502;51.886;15.604;2023-07-13T21:02:25;100767.40;;;20.02;45.38
40794;BME280;26502;51.886;15.604;2023-07-13T21:07:33;100775.59;;;20.22;45.32
40794;BME280;26502;51.886;15.604;2023-07-13T21:12:39;100777.54;;;20.37;44.99
40794;BME280;26502;51.886;15.604;2023-07-13T21:17:46;100789.61;;;20.50;44.70
40794;BME280;26502;51.886;15.604;2023-07-13T21:22:53;100799.04;;;20.49;44.69
40794;BME280;26502;51.886;15.604;2023-07-13T21:27:59;100805.52;;;20.52;44.96
40794;BME280;26502;51.886;15.604;2023-07-13T21:33:05;100810.29;;;20.48;45.08
40794;BME280;26502;51.886;15.604;2023-07-13T21:38:17;100815.45;;;20.39;44.86
40794;BME280;26502;51.886;15.604;2023-07-13T21:43:25;100816.34;;;20.37;45.00
40794;BME280;26502;51.886;15.604;2023-07-13T21:48:31;100821.77;;;20.34;45.06
40794;BME280;26502;51.886;15.604;2023-07-13T21:53:37;100821.49;;;20.30;45.19
40794;BME280;26502;51.886;15.604;2023-07-13T21:58:43;100824.11;;;20.21;45.25
40794;BME280;26502;51.886;15.604;2023-07-13T22:03:53;100824.80;;;20.19;45.13
40794;BME280;26502;51.886;15.604;2023-07-13T22:08:59;100819.42;;;20.09;45.61
40794;BME280;26502;51.886;15.604;2023-07-13T22:14:05;100822.67;;;20.09;45.97
40794;BME280;26502;51.886;15.604;2023-07-13T22:19:14;100816.94;;;20.10;46.05
40794;BME280;26502;51.886;15.604;2023-07-13T22:24:20;100821.01;;;19.98;46.04
40794;BME280;26502;51.886;15.604;2023-07-13T22:29:29;100821.45;;;19.55;46.19
40794;BME280;26502;51.886;15.604;2023-07-13T22:34:36;100825.80;;;19.30;46.58
40794;BME280;26502;51.886;15.604;2023-07-13T22:39:45;100832.64;;;19.22;46.89
40794;BME280;26502;51.886;15.604;2023-07-13T22:44:51;100832.64;;;19.38;47.41
40794;BME280;26502;51.886;15.604;2023-07-13T22:49:57;100831.13;;;19.47;47.39
40794;BME280;26502;51.886;15.604;2023-07-13T22:55:08;100828.22;;;19.29;47.79
40794;BME280;26502;51.886;15.604;2023-07-13T23:00:19;100828.00;;;19.08;47.74
40794;BME280;26502;51.886;15.604;2023-07-13T23:05:25;100841.20;;;18.67;47.94
40794;BME280;26502;51.886;15.604;2023-07-13T23:10:30;100847.64;;;18.42;48.52
40794;BME280;26502;51.886;15.604;2023-07-13T23:15:36;100847.70;;;18.49;49.01
40794;BME280;26502;51.886;15.604;2023-07-13T23:20:42;100848.46;;;18.58;49.07
40794;BME280;26502;51.886;15.604;2023-07-13T23:25:48;100854.10;;;18.54;49.36
40794;BME280;26502;51.886;15.604;2023-07-13T23:30:54;100861.80;;;18.40;49.54
40794;BME280;26502;51.886;15.604;2023-07-13T23:36:00;100855.42;;;18.47;49.95
40794;BME280;26502;51.886;15.604;2023-07-13T23:41:10;100854.02;;;18.41;49.76
40794;BME280;26502;51.886;15.604;2023-07-13T23:46:24;100857.72;;;18.01;49.73
40794;BME280;26502;51.886;15.604;2023-07-13T23:51:30;100854.23;;;17.59;50.38
40794;BME280;26502;51.886;15.604;2023-07-13T23:56:36;100861.67;;;17.73;50.62
